createdAt,value
2018-12-26T00:05:17.803Z,1.40
2018-12-26T00:08:42.092Z,1.50
2018-12-26T00:15:13.171Z,1.40
2018-12-26T00:21:44.444Z,1.40
2018-12-26T00:25:08.954Z,1.40
2018-12-26T00:27:39.140Z,1.40
2018-12-26T00:34:10.001Z,1.40
2018-12-26T00:40:41.233Z,1.30
2018-12-26T00:47:11.791Z,1.20
2018-12-26T00:53:42.416Z,1.10
2018-12-26T00:57:06.787Z,1.10
2018-12-26T01:03:38.368Z,1.10
2018-12-26T01:10:09.518Z,1.10
2018-12-26T01:13:33.817Z,1.10
2018-12-26T01:20:05.961Z,1.10
2018-12-26T01:23:30.517Z,1.00
2018-12-26T01:30:01.367Z,1.10
2018-12-26T01:33:25.765Z,1.10
2018-12-26T01:39:56.574Z,1.00
2018-12-26T01:46:28.428Z,0.90
2018-12-26T01:53:00.016Z,1.00
2018-12-26T01:59:30.985Z,1.00
2018-12-26T02:02:55.765Z,1.00
2018-12-26T02:09:26.889Z,1.00
2018-12-26T02:12:51.464Z,0.90
2018-12-26T02:19:23.289Z,1.10
2018-12-26T02:22:47.562Z,1.10
2018-12-26T02:29:18.318Z,1.10
2018-12-26T02:31:48.766Z,1.10
2018-12-26T02:38:20.069Z,1.10
2018-12-26T02:44:51.595Z,1.10
2018-12-26T02:51:22.952Z,1.00
2018-12-26T02:57:53.817Z,1.00
2018-12-26T03:01:18.197Z,1.10
2018-12-26T03:07:48.998Z,1.00
2018-12-26T03:11:13.446Z,1.10
2018-12-26T03:17:44.186Z,1.10
2018-12-26T03:24:15.173Z,1.10
2018-12-26T03:27:39.957Z,1.10
2018-12-26T03:34:12.806Z,1.00
2018-12-26T03:40:44.197Z,1.00
2018-12-26T03:44:08.627Z,1.00
2018-12-26T03:50:39.647Z,1.10
2018-12-26T03:54:04.639Z,1.00
2018-12-26T04:00:37.523Z,0.90
2018-12-26T04:07:08.606Z,0.80
2018-12-26T04:10:33.092Z,0.70
2018-12-26T04:17:04.111Z,0.60
2018-12-26T04:23:35.528Z,0.80
2018-12-26T04:27:00.886Z,0.80
2018-12-26T04:33:32.573Z,0.70
2018-12-26T04:36:02.758Z,0.70
2018-12-26T04:42:33.997Z,0.80
2018-12-26T04:49:05.266Z,0.80
2018-12-26T04:55:36.323Z,1.00
2018-12-26T04:58:24.875Z,1.00
2018-12-26T05:04:56.322Z,1.10
2018-12-26T05:11:27.574Z,1.00
2018-12-26T05:17:58.654Z,1.10
2018-12-26T05:21:23.394Z,1.10
2018-12-26T05:27:54.364Z,1.00
2018-12-26T05:31:18.794Z,1.00
2018-12-26T05:37:49.924Z,1.00
2018-12-26T05:44:21.213Z,0.90
2018-12-26T05:47:45.847Z,0.80
2018-12-26T05:54:17.546Z,0.90
2018-12-26T05:57:43.009Z,0.80
2018-12-26T06:04:14.379Z,1.00
2018-12-26T06:10:45.164Z,1.00
2018-12-26T06:14:10.020Z,1.00
2018-12-26T06:20:41.069Z,1.00
2018-12-26T06:24:05.771Z,0.90
2018-12-26T06:30:37.137Z,0.90
2018-12-26T06:37:08.459Z,0.80
2018-12-26T06:39:38.478Z,0.90
2018-12-26T06:46:09.569Z,0.90
2018-12-26T06:52:42.404Z,0.60
2018-12-26T06:59:13.504Z,0.10
2018-12-26T07:05:44.723Z,-0.10
2018-12-26T07:09:09.674Z,0.00
2018-12-26T07:15:40.555Z,0.00
2018-12-26T07:19:05.305Z,0.10
2018-12-26T07:25:36.323Z,0.20
2018-12-26T07:32:07.726Z,0.40
2018-12-26T07:35:32.022Z,0.40
2018-12-26T07:42:03.403Z,0.40
2018-12-26T07:48:33.848Z,0.20
2018-12-26T07:51:59.396Z,0.20
2018-12-26T07:58:30.945Z,0.40
2018-12-26T08:05:02.647Z,0.50
2018-12-26T08:11:34.178Z,0.30
2018-12-26T08:18:05.150Z,0.30
2018-12-26T08:24:36.539Z,0.20
2018-12-26T08:28:02.134Z,0.30
2018-12-26T08:34:33.554Z,0.40
2018-12-26T08:41:05.329Z,0.40
2018-12-26T08:43:42.079Z,0.30
2018-12-26T08:50:14.640Z,0.50
2018-12-26T08:56:48.752Z,0.70
2018-12-26T08:59:37.409Z,0.70
2018-12-26T09:06:09.771Z,0.80
2018-12-26T09:12:43.995Z,0.70
2018-12-26T09:15:48.973Z,0.80
2018-12-26T09:23:13.692Z,1.00
2018-12-26T09:29:44.280Z,1.20
2018-12-26T09:33:09.167Z,1.20
2018-12-26T09:39:40.017Z,1.00
2018-12-26T09:46:10.526Z,0.90
2018-12-26T09:52:43.671Z,1.10
2018-12-26T09:59:15.677Z,1.20
2018-12-26T10:05:48.170Z,1.40
2018-12-26T10:12:22.534Z,1.40
2018-12-26T10:15:47.274Z,1.50
2018-12-26T10:22:18.805Z,1.50
2018-12-26T10:28:51.499Z,1.50
2018-12-26T10:32:16.253Z,1.30
2018-12-26T10:38:47.596Z,1.20
2018-12-26T10:42:13.205Z,1.20
2018-12-26T10:48:46.446Z,1.40
2018-12-26T10:55:17.607Z,1.80
2018-12-26T10:58:42.415Z,1.50
2018-12-26T11:05:13.626Z,1.60
2018-12-26T11:08:39.794Z,1.90
2018-12-26T11:15:11.211Z,2.10
2018-12-26T11:21:43.421Z,2.00
2018-12-26T11:25:08.206Z,1.80
2018-12-26T11:31:40.614Z,1.80
2018-12-26T11:38:12.504Z,1.80
2018-12-26T11:41:38.113Z,1.90
2018-12-26T11:48:10.977Z,1.80
2018-12-26T11:54:43.129Z,1.90
2018-12-26T11:58:11.309Z,1.90
2018-12-26T12:04:44.168Z,2.00
2018-12-26T12:08:10.927Z,2.30
2018-12-26T12:14:42.735Z,2.00
2018-12-26T12:21:17.416Z,1.90
2018-12-26T12:24:42.308Z,2.00
2018-12-26T12:31:15.017Z,2.30
2018-12-26T12:34:41.243Z,2.10
2018-12-26T12:41:13.918Z,2.20
2018-12-26T12:47:46.264Z,2.10
2018-12-26T12:50:18.177Z,1.90
2018-12-26T12:56:49.910Z,1.70
2018-12-26T13:03:21.766Z,1.50
2018-12-26T13:06:03.820Z,1.60
2018-12-26T13:12:34.777Z,1.40
2018-12-26T13:19:06.077Z,1.40
2018-12-26T13:25:37.326Z,1.50
2018-12-26T13:29:03.086Z,1.50
2018-12-26T13:35:34.146Z,1.50
2018-12-26T13:38:58.791Z,1.50
2018-12-26T13:45:29.600Z,1.30
2018-12-26T13:52:00.906Z,1.20
2018-12-26T13:58:31.517Z,1.20
2018-12-26T14:01:55.995Z,1.30
2018-12-26T14:08:26.656Z,1.30
2018-12-26T14:14:57.675Z,1.00
2018-12-26T14:18:22.591Z,1.10
2018-12-26T14:24:54.028Z,1.20
2018-12-26T14:28:18.598Z,1.30
2018-12-26T14:34:49.619Z,1.20
2018-12-26T14:37:56.831Z,1.00
2018-12-26T14:44:28.104Z,1.20
2018-12-26T14:50:59.013Z,1.00
2018-12-26T14:53:29.209Z,0.90
2018-12-26T15:00:00.574Z,0.70
2018-12-26T15:06:31.300Z,0.70
2018-12-26T15:13:02.491Z,0.50
2018-12-26T15:16:27.471Z,0.40
2018-12-26T15:22:58.315Z,0.50
2018-12-26T15:26:23.815Z,0.30
2018-12-26T15:32:59.990Z,0.30
2018-12-26T15:39:31.753Z,0.30
2018-12-26T15:42:57.278Z,0.40
2018-12-26T15:49:28.815Z,0.30
2018-12-26T15:56:00.010Z,0.30
2018-12-26T16:02:31.648Z,0.20
2018-12-26T16:09:07.502Z,0.10
2018-12-26T16:15:39.734Z,0.10
2018-12-26T16:22:11.037Z,0.00
2018-12-26T16:25:35.836Z,0.10
2018-12-26T16:32:09.054Z,0.10
2018-12-26T16:38:40.055Z,0.10
2018-12-26T16:45:10.663Z,0.00
2018-12-26T16:48:35.328Z,0.00
2018-12-26T16:55:06.300Z,-0.10
2018-12-26T16:57:37.155Z,-0.10
2018-12-26T17:04:08.443Z,-0.10
2018-12-26T17:10:39.924Z,-0.10
2018-12-26T17:14:04.993Z,-0.10
2018-12-26T17:20:35.761Z,0.00
2018-12-26T17:27:07.341Z,-0.10
2018-12-26T17:30:32.033Z,-0.10
2018-12-26T17:37:03.069Z,-0.10
2018-12-26T17:40:27.651Z,-0.20
2018-12-26T17:46:59.189Z,-0.20
2018-12-26T17:53:36.972Z,-0.30
2018-12-26T18:00:16.317Z,-0.30
2018-12-26T18:06:47.834Z,-0.30
2018-12-26T18:13:19.440Z,-0.20
2018-12-26T18:19:50.636Z,-0.30
2018-12-26T18:26:21.537Z,-0.30
2018-12-26T18:29:46.966Z,-0.20
2018-12-26T18:36:18.841Z,-0.20
2018-12-26T18:39:43.895Z,-0.30
2018-12-26T18:46:15.933Z,-0.20
2018-12-26T18:49:40.450Z,-0.20
2018-12-26T18:56:11.973Z,-0.20
2018-12-26T18:58:54.477Z,-0.20
2018-12-26T19:01:30.645Z,-0.10
2018-12-26T19:07:57.859Z,-0.10
2018-12-26T19:14:30.216Z,-0.10
2018-12-26T19:17:56.098Z,-0.20
2018-12-26T19:24:27.306Z,-0.20
2018-12-26T19:27:52.910Z,-0.40
2018-12-26T19:34:24.315Z,-0.30
2018-12-26T19:37:49.970Z,-0.30
2018-12-26T19:44:21.828Z,-0.30
2018-12-26T19:50:52.845Z,-0.30
2018-12-26T19:57:23.583Z,-0.40
2018-12-26T20:03:54.669Z,-0.50
2018-12-26T20:06:24.813Z,-0.50
2018-12-26T20:12:56.257Z,-0.40
2018-12-26T20:19:27.336Z,-0.30
2018-12-26T20:22:52.208Z,-0.40
2018-12-26T20:29:29.173Z,-0.40
2018-12-26T20:32:53.938Z,-0.40
2018-12-26T20:40:19.467Z,-0.30
2018-12-26T20:46:49.432Z,-0.40
2018-12-26T20:50:14.190Z,-0.40
2018-12-26T21:00:45.803Z,-0.20
2018-12-26T21:07:17.137Z,-0.30
2018-12-26T21:13:49.973Z,-0.30
2018-12-26T21:17:14.560Z,-0.30
2018-12-26T21:23:45.585Z,-0.20
2018-12-26T21:27:10.953Z,-0.30
2018-12-26T21:33:41.916Z,-0.30
2018-12-26T21:37:06.548Z,-0.30
2018-12-26T21:43:37.537Z,-0.30
2018-12-26T21:47:01.893Z,-0.30
2018-12-26T21:53:32.578Z,-0.40
2018-12-26T22:00:03.915Z,-0.50
2018-12-26T22:06:34.463Z,-0.40
2018-12-26T22:09:06.098Z,-0.30
2018-12-26T22:15:37.187Z,-0.20
2018-12-26T22:22:08.305Z,-0.20
2018-12-26T22:25:32.741Z,-0.20
2018-12-26T22:32:05.200Z,-0.10
2018-12-26T22:38:36.144Z,-0.10
2018-12-26T22:45:08.093Z,0.00
2018-12-26T22:51:42.150Z,0.00
2018-12-26T22:58:11.598Z,-0.10
2018-12-26T23:04:42.444Z,0.00
2018-12-26T23:11:13.532Z,0.00
2018-12-26T23:17:44.214Z,0.10
2018-12-26T23:24:15.095Z,0.10
2018-12-26T23:30:45.999Z,0.10
2018-12-26T23:37:16.835Z,0.00
2018-12-26T23:40:41.671Z,0.00
2018-12-26T23:47:12.903Z,0.20
2018-12-26T23:53:43.894Z,0.30
2018-12-26T23:57:08.596Z,0.20
